Time;durP1;ratioP1;P1;durP2;ratioP2;P2;SDS_P1;SDS_P2;PMS_P1;PMS_P2;Temp;Humidity;BMP_temperature;BMP_pressure;BME280_temperature;BME280_humidity;BME280_pressure;Samples;Min_cycle;Max_cycle;Signal;HPM_P1;HPM_P2
2023/09/09 00:00:37;;;;;;;3.72;2.58;;;;;;;;;;5011861;28;20021;-76
2023/09/09 00:03:02;;;;;;;4.80;2.55;;;18.70;85.40;;;;;;5009857;28;20038;-77
2023/09/09 00:05:33;;;;;;;3.67;2.30;;;18.90;82.60;;;;;;5014399;28;20030;-76
2023/09/09 00:07:59;;;;;;;3.97;2.63;;;;;;;;;;5021919;28;20037;-76
2023/09/09 00:10:25;;;;;;;3.58;2.30;;;;;;;;;;5011227;28;20102;-76
2023/09/09 00:12:51;;;;;;;5.63;2.90;;;;;;;;;;5020809;28;20064;-76
2023/09/09 00:15:17;;;;;;;3.88;2.50;;;;;;;;;;5010782;28;20109;-76
2023/09/09 00:17:43;;;;;;;4.93;2.75;;;;;;;;;;5009440;28;20060;-77
2023/09/09 00:20:14;;;;;;;4.68;2.65;;;18.70;80.00;;;;;;5013554;28;20064;-76
2023/09/09 00:22:40;;;;;;;4.32;3.20;;;;;;;;;;5009834;28;20172;-77
2023/09/09 00:25:06;;;;;;;5.72;2.58;;;;;;;;;;5011261;28;20424;-76
2023/09/09 00:27:32;;;;;;;4.50;2.58;;;;;;;;;;5009181;28;20514;-77
2023/09/09 00:29:58;;;;;;;5.10;2.45;;;;;;;;;;5013073;28;20502;-76
2023/09/09 00:32:24;;;;;;;3.88;2.22;;;;;;;;;;5014167;28;20021;-77
2023/09/09 00:34:50;;;;;;;6.45;2.97;;;;;;;;;;5010907;28;20580;-76
2023/09/09 00:37:16;;;;;;;4.25;2.80;;;;;;;;;;5007434;28;20034;-76
2023/09/09 00:39:42;;;;;;;3.45;2.95;;;;;;;;;;5009479;28;20602;-77
2023/09/09 00:42:08;;;;;;;5.07;3.15;;;;;;;;;;5015468;28;20108;-77
2023/09/09 00:44:34;;;;;;;2.63;2.05;;;;;;;;;;5021765;28;20030;-77
2023/09/09 00:47:00;;;;;;;3.75;2.30;;;;;;;;;;5014412;28;20033;-76
2023/09/09 00:49:27;;;;;;;4.88;3.30;;;;;;;;;;5004244;28;20541;-77
2023/09/09 00:51:53;;;;;;;6.32;3.03;;;;;;;;;;5010810;28;20029;-76
2023/09/09 00:54:19;;;;;;;5.45;3.05;;;;;;;;;;5015752;28;20022;-76
2023/09/09 00:56:45;;;;;;;4.35;3.03;;;;;;;;;;5014511;28;20429;-76
2023/09/09 00:59:12;;;;;;;5.93;2.85;;;;;;;;;;5006749;28;20048;-77
2023/09/09 01:01:38;;;;;;;6.68;3.15;;;;;;;;;;5017768;28;20079;-77
2023/09/09 01:04:04;;;;;;;5.38;2.55;;;18.30;88.00;;;;;;5008813;28;20032;-76
2023/09/09 01:06:30;;;;;;;3.88;2.78;;;18.10;86.10;;;;;;5014731;28;20045;-77
2023/09/09 01:08:56;;;;;;;6.25;3.13;;;;;;;;;;5006294;28;20116;-76
2023/09/09 01:11:22;;;;;;;5.13;2.78;;;;;;;;;;5020319;28;20102;-77
2023/09/09 01:13:49;;;;;;;3.28;2.40;;;;;;;;;;5008103;28;20495;-77
2023/09/09 01:16:15;;;;;;;3.25;2.28;;;;;;;;;;5007228;28;20152;-76
2023/09/09 01:18:41;;;;;;;2.78;2.40;;;;;;;;;;5006233;28;20083;-76
2023/09/09 01:21:07;;;;;;;5.13;2.35;;;;;;;;;;5016513;28;20399;-76
2023/09/09 01:23:34;;;;;;;4.57;2.70;;;;;;;;;;5008188;28;20034;-77
2023/09/09 01:26:00;;;;;;;3.42;2.65;;;;;;;;;;5008288;28;20014;-76
2023/09/09 01:28:26;;;;;;;4.82;3.03;;;;;;;;;;5014874;28;20040;-76
2023/09/09 01:30:52;;;;;;;10.93;3.50;;;;;;;;;;5015614;28;20029;-76
2023/09/09 01:33:18;;;;;;;7.95;2.70;;;;;;;;;;5006774;28;20487;-77
2023/09/09 01:35:45;;;;;;;4.90;2.95;;;18.10;85.50;;;;;;5016132;28;20554;-76
2023/09/09 01:38:11;;;;;;;3.78;2.85;;;;;;;;;;5009868;28;20066;-77
2023/09/09 01:40:37;;;;;;;5.45;2.72;;;;;;;;;;5010642;28;20651;-77
2023/09/09 01:43:03;;;;;;;4.00;2.30;;;;;;;;;;5013552;28;20025;-76
2023/09/09 01:45:29;;;;;;;5.35;2.67;;;;;;;;;;5007130;28;20390;-76
2023/09/09 01:47:55;;;;;;;7.43;2.55;;;;;;;;;;5004897;28;20051;-76
2023/09/09 01:50:21;;;;;;;7.22;2.85;;;;;;;;;;5010952;28;20093;-76
2023/09/09 01:52:47;;;;;;;4.93;3.13;;;;;;;;;;5013221;28;20075;-76
2023/09/09 01:55:13;;;;;;;4.22;3.00;;;;;;;;;;5008510;28;20101;-76
2023/09/09 01:57:39;;;;;;;4.07;2.63;;;;;;;;;;5013744;28;20117;-76
2023/09/09 02:00:09;;;;;;;3.40;2.78;;;17.50;89.50;;;;;;5013536;28;20172;-76
2023/09/09 02:02:35;;;;;;;3.90;2.78;;;;;;;;;;5006686;28;20041;-76
2023/09/09 02:05:01;;;;;;;5.18;2.95;;;;;;;;;;5005170;28;20030;-76
2023/09/09 02:07:27;;;;;;;4.20;2.90;;;;;;;;;;5014657;28;20133;-76
2023/09/09 02:09:53;;;;;;;5.63;3.30;;;;;;;;;;5009558;28;20450;-76
2023/09/09 02:12:19;;;;;;;4.82;3.17;;;;;;;;;;5007463;28;20088;-76
2023/09/09 02:14:45;;;;;;;7.40;2.15;;;;;;;;;;5012707;28;20033;-76
2023/09/09 02:17:12;;;;;;;5.50;2.58;;;;;;;;;;5010398;28;20060;-76
2023/09/09 02:19:39;;;;;;;5.28;3.65;;;;;;;;;;5007320;28;20025;-77
2023/09/09 02:22:05;;;;;;;6.90;3.03;;;;;;;;;;5014405;28;20037;-77
2023/09/09 02:24:31;;;;;;;5.65;3.13;;;;;;;;;;5019521;28;20021;-77
2023/09/09 02:26:57;;;;;;;3.88;2.90;;;;;;;;;;5012388;28;20552;-76
2023/09/09 02:29:23;;;;;;;3.70;2.70;;;;;;;;;;5007773;28;20030;-76
2023/09/09 02:31:49;;;;;;;4.95;2.35;;;;;;;;;;5027018;28;20029;-77
2023/09/09 02:34:15;;;;;;;4.72;2.40;;;;;;;;;;5012078;28;20037;-76
2023/09/09 02:36:45;;;;;;;5.55;2.95;;;;;;;;;;5009428;28;20050;-76
2023/09/09 02:39:11;;;;;;;5.07;3.17;;;;;;;;;;5010060;28;20080;-77
2023/09/09 02:41:37;;;;;;;2.83;2.53;;;;;;;;;;5012394;28;20479;-76
2023/09/09 02:44:03;;;;;;;5.55;2.95;;;;;;;;;;5008821;28;20013;-76
2023/09/09 02:46:29;;;;;;;4.60;2.92;;;;;;;;;;5014839;28;20040;-76
2023/09/09 02:48:55;;;;;;;8.07;2.67;;;;;;;;;;5014314;28;20100;-76
2023/09/09 02:51:21;;;;;;;3.80;2.60;;;;;;;;;;5014896;28;20033;-76
2023/09/09 02:53:47;;;;;;;3.97;2.88;;;;;;;;;;5019866;28;20022;-76
2023/09/09 02:56:12;;;;;;;5.97;2.17;;;17.10;97.70;;;;;;5014459;28;20372;-77
2023/09/09 02:58:38;;;;;;;4.50;2.90;;;;;;;;;;5015722;28;20128;-77
2023/09/09 03:01:05;;;;;;;4.78;2.45;;;16.90;92.40;;;;;;5021286;28;20385;-76
2023/09/09 03:03:31;;;;;;;4.33;3.00;;;;;;;;;;5017302;28;20128;-76
2023/09/09 03:05:57;;;;;;;5.70;3.80;;;;;;;;;;5012563;28;20272;-76
2023/09/09 03:08:23;;;;;;;6.03;3.22;;;;;;;;;;5009842;28;20026;-76
2023/09/09 03:10:49;;;;;;;5.07;3.03;;;;;;;;;;5016225;28;20430;-76
2023/09/09 03:13:16;;;;;;;3.75;3.20;;;;;;;;;;5010377;28;20495;-76
2023/09/09 03:15:42;;;;;;;4.30;3.47;;;;;;;;;;5011974;28;20064;-76
2023/09/09 03:18:08;;;;;;;5.10;3.40;;;;;;;;;;5016135;28;20502;-76
2023/09/09 03:20:34;;;;;;;3.78;2.63;;;;;;;;;;5014608;28;20041;-76
2023/09/09 03:22:59;;;;;;;4.13;2.83;;;16.70;98.80;;;;;;5012193;28;20029;-76
2023/09/09 03:25:26;;;;;;;7.22;2.70;;;16.80;93.10;;;;;;5017617;28;20590;-76
2023/09/09 03:27:52;;;;;;;4.65;2.88;;;;;;;;;;5015019;28;20029;-77
2023/09/09 03:30:18;;;;;;;4.97;3.08;;;;;;;;;;5012296;28;20034;-76
2023/09/09 03:32:44;;;;;;;5.40;2.58;;;;;;;;;;5017936;28;20491;-76
2023/09/09 03:35:10;;;;;;;7.82;3.80;;;;;;;;;;5022492;28;20029;-76
2023/09/09 03:37:36;;;;;;;4.03;3.20;;;;;;;;;;5017382;28;20046;-76
2023/09/09 03:40:03;;;;;;;5.15;3.50;;;16.90;93.40;;;;;;5009142;28;20033;-76
2023/09/09 03:42:29;;;;;;;14.05;3.97;;;;;;;;;;5018372;28;20026;-77
2023/09/09 03:44:55;;;;;;;4.72;3.20;;;;;;;;;;5006159;28;20397;-76
2023/09/09 03:47:21;;;;;;;7.07;3.33;;;;;;;;;;5013988;28;20075;-76
2023/09/09 03:49:48;;;;;;;4.65;2.42;;;;;;;;;;5013626;28;20022;-76
2023/09/09 03:52:14;;;;;;;7.50;4.50;;;;;;;;;;5015012;28;20595;-76
2023/09/09 03:54:40;;;;;;;5.25;3.03;;;;;;;;;;5016382;28;20061;-76
2023/09/09 03:57:06;;;;;;;5.38;2.42;;;;;;;;;;5013607;28;20487;-76
2023/09/09 03:59:33;;;;;;;4.47;3.47;;;;;;;;;;5011216;28;20053;-76
2023/09/09 04:01:58;;;;;;;5.60;3.53;;;16.60;99.90;;;;;;5016377;28;20025;-76
2023/09/09 04:04:24;;;;;;;4.38;2.60;;;;;;;;;;5015724;28;20101;-76
2023/09/09 04:06:50;;;;;;;4.15;2.67;;;;;;;;;;5014460;28;20049;-76
2023/09/09 04:09:22;;;;;;;4.38;3.20;;;;;;;;;;5010508;28;20852;-76
2023/09/09 04:11:48;;;;;;;5.18;2.95;;;;;;;;;;5012659;28;20727;-78
2023/09/09 04:14:14;;;;;;;4.65;3.05;;;;;;;;;;5020413;28;20498;-78
2023/09/09 04:16:40;;;;;;;5.97;4.00;;;;;;;;;;5017267;28;20046;-78
2023/09/09 04:19:06;;;;;;;4.20;2.70;;;16.40;98.50;;;;;;5017322;28;20069;-78
2023/09/09 04:21:32;;;;;;;3.92;3.15;;;;;;;;;;5008486;28;20080;-78
2023/09/09 04:23:58;;;;;;;8.98;4.13;;;;;;;;;;5009404;28;20037;-78
2023/09/09 04:26:24;;;;;;;5.60;3.97;;;;;;;;;;5010008;28;20021;-78
2023/09/09 04:28:50;;;;;;;6.20;3.65;;;;;;;;;;5015755;28;20494;-80
2023/09/09 04:31:16;;;;;;;7.90;3.00;;;;;;;;;;5006044;28;20100;-78
2023/09/09 04:33:42;;;;;;;5.80;3.13;;;;;;;;;;5013436;28;20111;-79
2023/09/09 04:36:08;;;;;;;5.00;2.42;;;;;;;;;;5016910;28;20110;-78
2023/09/09 04:38:34;;;;;;;4.25;2.17;;;;;;;;;;5019158;28;20073;-79
2023/09/09 04:41:00;;;;;;;4.05;3.22;;;;;;;;;;5011569;28;20126;-79
2023/09/09 04:43:26;;;;;;;4.57;2.55;;;;;;;;;;5011437;28;20030;-78
2023/09/09 04:45:52;;;;;;;9.18;3.25;;;;;;;;;;5009068;28;20494;-78
2023/09/09 04:48:18;;;;;;;4.53;2.88;;;;;;;;;;5004335;28;20033;-78
2023/09/09 04:50:45;;;;;;;5.18;2.97;;;;;;;;;;5008677;28;20022;-78
2023/09/09 04:53:11;;;;;;;4.55;2.88;;;;;;;;;;5020508;28;20029;-79
2023/09/09 04:55:37;;;;;;;5.35;2.97;;;;;;;;;;5008123;28;20037;-78
2023/09/09 04:58:03;;;;;;;6.63;3.00;;;;;;;;;;5015607;28;20796;-79
2023/09/09 05:00:29;;;;;;;4.45;2.97;;;;;;;;;;5006141;28;20033;-78
2023/09/09 05:02:54;;;;;;;6.75;2.97;;;16.20;99.90;;;;;;5011877;28;20022;-78
2023/09/09 05:05:21;;;;;;;6.20;3.88;;;;;;;;;;5009500;28;20395;-78
2023/09/09 05:07:46;;;;;;;4.30;2.42;;;;;;;;;;5011898;28;20087;-78
2023/09/09 05:10:13;;;;;;;4.70;2.53;;;16.40;99.90;;;;;;5008658;28;20476;-78
2023/09/09 05:12:39;;;;;;;6.43;3.50;;;;;;;;;;5010102;28;20034;-78
2023/09/09 05:15:07;;;;;;;3.80;2.60;;;;;;;;;;5011769;28;20032;-78
2023/09/09 05:17:33;;;;;;;4.47;2.92;;;;;;;;;;5011427;28;20064;-78
2023/09/09 05:19:59;;;;;;;4.43;2.67;;;;;;;;;;5015513;28;20032;-78
2023/09/09 05:22:25;;;;;;;6.38;3.45;;;;;;;;;;5011889;28;20072;-78
2023/09/09 05:24:51;;;;;;;4.93;2.45;;;;;;;;;;5009565;28;20058;-79
2023/09/09 05:27:17;;;;;;;4.68;2.75;;;;;;;;;;5009645;28;20581;-79
2023/09/09 05:29:43;;;;;;;3.72;2.28;;;;;;;;;;5016666;28;20026;-79
2023/09/09 05:32:09;;;;;;;3.07;2.47;;;;;;;;;;5014738;28;20040;-78
2023/09/09 05:34:36;;;;;;;4.65;2.97;;;;;;;;;;5018134;28;20082;-79
2023/09/09 05:37:02;;;;;;;8.48;3.42;;;;;;;;;;5018426;28;20033;-79
2023/09/09 05:39:28;;;;;;;5.65;3.00;;;;;;;;;;5014367;28;20098;-78
2023/09/09 05:41:54;;;;;;;4.43;3.30;;;;;;;;;;5009940;28;20541;-79
2023/09/09 05:44:20;;;;;;;4.25;3.05;;;;;;;;;;5012140;28;20084;-78
2023/09/09 05:46:46;;;;;;;4.72;2.85;;;;;;;;;;5016139;28;20459;-79
2023/09/09 05:49:12;;;;;;;4.30;2.70;;;;;;;;;;5003685;28;20026;-78
2023/09/09 05:51:38;;;;;;;7.28;3.20;;;;;;;;;;5011343;28;20552;-79
2023/09/09 05:54:04;;;;;;;4.25;3.35;;;;;;;;;;5005586;28;20108;-79
2023/09/09 05:56:30;;;;;;;4.93;3.42;;;;;;;;;;5007625;28;20559;-79
2023/09/09 05:58:56;;;;;;;4.60;2.95;;;;;;;;;;5006839;28;20040;-79
2023/09/09 06:01:22;;;;;;;4.00;3.10;;;;;;;;;;4999809;28;20063;-79
2023/09/09 06:03:54;;;;;;;3.70;3.28;;;21.80;65.60;;;;;;5016413;28;20034;-80
2023/09/09 06:06:20;;;;;;;4.55;3.60;;;;;;;;;;5017419;28;20083;-80
2023/09/09 06:08:48;;;;;;;6.13;3.65;;;22.30;59.70;;;;;;5014666;28;20034;-80
2023/09/09 06:11:14;;;;;;;8.43;3.60;;;;;;;;;;5010281;28;20033;-79
2023/09/09 06:13:40;;;;;;;4.80;4.03;;;;;;;;;;5021824;28;20547;-80
2023/09/09 06:16:06;;;;;;;5.55;3.08;;;;;;;;;;5024480;28;20026;-80
2023/09/09 06:18:32;;;;;;;5.35;3.42;;;;;;;;;;5016745;28;20557;-80
2023/09/09 06:20:59;;;;;;;9.43;8.13;;;25.30;61.10;;;;;;5011522;28;20022;-80
2023/09/09 06:23:25;;;;;;;5.37;3.73;;;;;;;;;;5018218;28;20053;-81
2023/09/09 06:25:51;;;;;;;4.85;3.05;;;26.30;54.20;;;;;;5014324;28;20284;-80
2023/09/09 06:28:17;;;;;;;4.47;2.72;;;;;;;;;;5013356;28;21629;-77
2023/09/09 06:30:43;;;;;;;5.25;3.15;;;;;;;;;;5015908;28;20092;-77
2023/09/09 06:33:09;;;;;;;7.75;4.65;;;;;;;;;;5021430;28;20390;-78
2023/09/09 06:35:35;;;;;;;3.00;2.70;;;;;;;;;;5017645;28;20255;-79
2023/09/09 06:38:01;;;;;;;8.17;3.67;;;;;;;;;;5011887;28;20052;-77
2023/09/09 06:40:27;;;;;;;3.17;2.87;;;;;;;;;;5016056;28;20044;-77
2023/09/09 06:42:54;;;;;;;6.78;3.78;;;;;;;;;;5023090;28;20295;-78
2023/09/09 06:45:20;;;;;;;4.88;3.15;;;;;;;;;;5013525;28;20467;-77
2023/09/09 06:47:46;;;;;;;6.97;3.58;;;;;;;;;;5014917;28;20768;-78
2023/09/09 06:50:12;;;;;;;3.25;2.70;;;;;;;;;;5024705;28;20037;-78
2023/09/09 06:52:38;;;;;;;4.07;2.50;;;;;;;;;;5016177;28;20054;-77
2023/09/09 06:55:07;;;;;;;3.55;2.58;;;41.90;31.10;;;;;;5022998;28;20025;-77
2023/09/09 06:57:33;;;;;;;9.60;3.08;;;43.00;29.10;;;;;;5016715;28;20044;-78
2023/09/09 06:59:59;;;;;;;4.07;2.83;;;;;;;;;;5013955;28;20510;-78
2023/09/09 07:02:25;;;;;;;3.05;2.63;;;44.50;32.80;;;;;;5013059;28;20033;-78
2023/09/09 07:04:50;;;;;;;;;;;45.20;26.90;;;;;;5014403;28;20128;-78
2023/09/09 07:07:16;;;;;;;4.53;2.70;;;47.10;28.80;;;;;;5013688;28;19967;-78
2023/09/09 07:09:42;;;;;;;5.57;3.05;;;;;;;;;;5013613;28;20036;-78
2023/09/09 07:12:09;;;;;;;4.93;2.85;;;48.40;25.80;;;;;;5010634;28;20490;-78
2023/09/09 07:14:35;;;;;;;3.65;2.67;;;;;;;;;;5016219;28;20029;-78
2023/09/09 07:17:01;;;;;;;3.03;2.70;;;;;;;;;;5011775;28;20156;-78
2023/09/09 07:19:28;;;;;;;3.15;2.53;;;;;;;;;;5013318;28;20068;-79
2023/09/09 07:21:54;;;;;;;3.40;2.75;;;;;;;;;;5007636;28;20033;-79
2023/09/09 07:24:19;;;;;;;4.05;2.38;;;51.60;26.50;;;;;;5014409;28;20552;-79
2023/09/09 07:26:45;;;;;;;3.83;2.47;;;;;;;;;;5015643;28;20034;-78
2023/09/09 07:29:11;;;;;;;2.90;2.42;;;51.80;26.80;;;;;;5012825;28;20390;-78
2023/09/09 07:31:37;;;;;;;2.75;2.40;;;;;;;;;;5007136;28;20104;-78
2023/09/09 07:34:03;;;;;;;3.42;2.75;;;;;;;;;;5013109;28;20025;-78
2023/09/09 07:36:28;;;;;;;2.50;2.30;;;53.60;27.10;;;;;;5011375;28;20045;-87
2023/09/09 07:38:55;;;;;;;3.35;3.05;;;;;;;;;;5008987;28;20406;-80
2023/09/09 07:41:21;;;;;;;3.90;2.75;;;;;;;;;;5009611;28;20750;-79
2023/09/09 07:43:48;;;;;;;3.03;2.72;;;;;;;;;;5017446;28;20052;-80
2023/09/09 07:46:14;;;;;;;3.95;2.50;;;;;;;;;;5021522;28;20029;-80
2023/09/09 07:48:41;;;;;;;2.72;2.45;;;;;;;;;;5017285;28;20065;-80
2023/09/09 07:51:07;;;;;;;2.30;2.10;;;56.80;21.70;;;;;;5005237;28;20022;-79
2023/09/09 07:53:33;;;;;;;2.50;2.30;;;57.70;25.30;;;;;;5015541;28;20148;-80
2023/09/09 07:55:59;;;;;;;2.92;2.60;;;;;;;;;;5012743;28;20094;-80
2023/09/09 07:58:25;;;;;;;3.35;2.15;;;;;;;;;;5005729;28;20037;-79
2023/09/09 08:01:07;;;;;;;2.83;2.63;;;58.50;21.40;;;;;;5009506;28;20387;-80
2023/09/09 08:03:34;;;;;;;2.72;2.30;;;;;;;;;;5010726;28;20570;-80
2023/09/09 08:06:06;;;;;;;2.42;2.15;;;59.10;24.40;;;;;;5019767;28;20025;-80
2023/09/09 08:08:38;;;;;;;2.60;2.40;;;59.50;20.50;;;;;;5011577;28;20041;-81
2023/09/09 08:11:04;;;;;;;2.72;2.53;;;59.90;22.20;;;;;;5014234;28;20030;-80
2023/09/09 08:13:30;;;;;;;3.38;2.25;;;;;;;;;;5008731;28;20029;-80
2023/09/09 08:15:58;;;;;;;7.22;3.15;;;60.40;23.70;;;;;;5010216;28;20455;-80
2023/09/09 08:18:24;;;;;;;2.90;2.70;;;;;;;;;;5007964;28;20050;-80
2023/09/09 08:20:50;;;;;;;4.15;2.45;;;60.90;20.00;;;;;;5013709;28;20647;-80
2023/09/09 08:23:16;;;;;;;3.38;3.08;;;61.30;19.80;;;;;;5008076;28;20483;-80
2023/09/09 08:25:42;;;;;;;4.10;2.55;;;;;;;;;;5007157;28;20153;-80
2023/09/09 08:28:08;;;;;;;2.85;2.65;;;;;;;;;;5003157;28;20125;-80
2023/09/09 08:30:35;;;;;;;3.40;2.25;;;61.10;19.60;;;;;;5006925;28;20033;-80
2023/09/09 08:33:01;;;;;;;3.20;3.00;;;;;;;;;;5004963;28;20914;-80
2023/09/09 08:35:28;;;;;;;3.45;3.15;;;;;;;;;;5009112;28;20458;-82
2023/09/09 08:37:54;;;;;;;3.00;2.80;;;;;;;;;;5010489;28;20038;-82
2023/09/09 08:40:20;;;;;;;3.40;3.20;;;;;;;;;;5010010;28;20022;-81
2023/09/09 08:43:04;;;;;;;2.92;2.70;;;63.10;19.40;;;;;;5010098;28;20026;-83
2023/09/09 08:45:56;;;;;;;2.70;2.60;;;63.90;19.40;;;;;;5008252;28;20041;-82
2023/09/09 08:48:23;;;;;;;2.88;2.67;;;63.80;19.20;;;;;;5007923;28;20029;-83
2023/09/09 08:50:50;;;;;;;3.33;3.03;;;;;;;;;;5009617;28;20419;-82
2023/09/09 08:53:17;;;;;;;3.75;3.20;;;64.50;19.10;;;;;;5008235;28;20121;-83
2023/09/09 08:55:44;;;;;;;3.85;3.22;;;;;;;;;;5009841;28;20521;-82
2023/09/09 08:58:10;;;;;;;3.58;3.38;;;;;;;;;;5010357;28;20416;-84
2023/09/09 09:00:37;;;;;;;3.25;3.05;;;64.50;18.90;;;;;;5010167;28;20030;-83
2023/09/09 09:03:04;;;;;;;4.78;3.33;;;64.80;23.70;;;;;;5010371;28;20302;-83
2023/09/09 09:05:31;;;;;;;3.70;3.50;;;64.90;18.90;;;;;;5010563;28;20044;-83
2023/09/09 09:07:57;;;;;;;3.85;3.58;;;;;;;;;;5010064;28;20691;-83
2023/09/09 09:10:23;;;;;;;3.65;3.35;;;;;;;;;;5008148;28;20072;-84
2023/09/09 09:12:49;;;;;;;4.05;3.75;;;;;;;;;;5010254;28;20054;-83
2023/09/09 09:15:16;;;;;;;4.32;3.42;;;65.60;18.60;;;;;;5009631;28;20022;-82
2023/09/09 09:17:42;;;;;;;3.65;3.42;;;;;;;;;;5008816;28;20093;-83
2023/09/09 09:20:23;;;;;;;3.92;3.70;;;65.50;18.40;;;;;;5009567;28;20018;-82
2023/09/09 09:22:49;;;;;;;3.95;3.75;;;;;;;;;;5009897;28;20025;-82
2023/09/09 09:25:20;;;;;;;3.60;3.40;;;65.50;18.10;;;;;;5010282;28;20861;-82
2023/09/09 09:27:46;;;;;;;4.22;3.60;;;;;;;;;;5010201;28;20129;-82
2023/09/09 09:30:13;;;;;;;3.70;3.50;;;;;;;;;;5008694;28;20109;-83
2023/09/09 09:32:43;;;;;;;3.80;3.60;;;64.80;18.40;;;;;;5012626;28;20030;-82
2023/09/09 09:35:31;;;;;;;4.60;3.28;;;64.80;23.90;;;;;;5010175;28;20022;-83
2023/09/09 09:38:02;;;;;;;3.47;3.10;;;64.20;18.20;;;;;;5009763;28;20045;-83
2023/09/09 09:40:29;;;;;;;3.38;3.17;;;64.20;18.40;;;;;;5010259;28;20034;-83
2023/09/09 09:42:55;;;;;;;3.40;3.20;;;;;;;;;;5008877;28;20528;-82
2023/09/09 09:45:29;;;;;;;3.55;3.13;;;64.10;18.40;;;;;;5009521;28;20530;-83
2023/09/09 09:47:58;;;;;;;3.15;2.95;;;64.20;18.50;;;;;;5000055;28;20742;-83
2023/09/09 09:50:28;;;;;;;3.03;2.83;;;64.80;18.60;;;;;;5009123;28;20095;-83
2023/09/09 09:52:58;;;;;;;3.28;3.08;;;65.20;22.50;;;;;;5017471;28;20051;-82
2023/09/09 09:55:25;;;;;;;3.10;2.90;;;65.20;18.50;;;;;;5010084;28;20026;-82
2023/09/09 09:57:56;;;;;;;3.17;2.97;;;65.30;18.50;;;;;;5010063;28;20048;-82
2023/09/09 10:00:23;;;;;;;3.38;3.08;;;65.30;18.50;;;;;;5008315;28;20034;-83
2023/09/09 10:02:54;;;;;;;3.58;3.30;;;65.50;23.90;;;;;;5009078;28;20030;-82
2023/09/09 10:05:27;;;;;;;3.40;3.20;;;65.20;24.00;;;;;;5008270;28;20041;-84
2023/09/09 10:07:53;;;;;;;3.63;3.42;;;;;;;;;;5005376;28;20414;-84
2023/09/09 10:10:22;;;;;;;3.83;3.10;;;64.90;18.70;;;;;;5006123;28;20606;-83
2023/09/09 10:13:17;;;;;;;3.40;3.20;;;64.80;20.00;;;;;;5008167;28;20509;-84
2023/09/09 10:15:43;;;;;;;4.10;3.17;;;;;;;;;;5001864;28;20090;-82
2023/09/09 10:18:11;;;;;;;3.40;3.20;;;64.50;18.50;;;;;;5006745;28;20417;-82
2023/09/09 10:20:39;;;;;;;4.00;3.72;;;64.90;18.50;;;;;;5007302;28;20030;-83
2023/09/09 10:23:05;;;;;;;3.67;3.47;;;;;;;;;;5009549;28;20092;-83
2023/09/09 10:25:31;;;;;;;3.92;3.63;;;;;;;;;;5009501;28;20033;-82
2023/09/09 10:27:57;;;;;;;3.30;3.10;;;;;;;;;;5009598;28;20032;-83
2023/09/09 10:30:24;;;;;;;3.40;3.20;;;;;;;;;;5008882;28;20472;-82
2023/09/09 10:32:50;;;;;;;3.88;3.55;;;;;;;;;;5008882;28;20026;-83
2023/09/09 10:35:17;;;;;;;3.60;3.30;;;64.90;18.50;;;;;;5008830;28;20022;-83
2023/09/09 10:37:46;;;;;;;3.25;3.05;;;64.90;18.50;;;;;;4998367;28;20037;-82
2023/09/09 10:40:14;;;;;;;3.22;3.03;;;64.60;18.50;;;;;;5008738;28;20030;-83
2023/09/09 10:42:41;;;;;;;3.47;3.17;;;64.70;18.50;;;;;;5009264;28;20613;-82
2023/09/09 10:45:28;;;;;;;3.30;3.00;;;64.70;18.50;;;;;;5006586;28;20026;-83
2023/09/09 10:47:57;;;;;;;3.30;3.00;;;64.30;18.50;;;;;;5008963;28;20101;-83
2023/09/09 10:50:38;;;;;;;3.40;3.08;;;64.60;18.50;;;;;;5008811;28;20430;-82
2023/09/09 10:53:12;;;;;;;3.30;3.10;;;64.30;19.30;;;;;;5012637;28;20022;-83
2023/09/09 10:55:39;;;;;;;5.30;3.10;;;;;;;;;;5012290;28;20033;-83
2023/09/09 10:58:08;;;;;;;3.30;3.10;;;;;;;;;;5012783;28;20087;-83
2023/09/09 11:00:39;;;;;;;3.33;3.13;;;64.30;18.30;;;;;;5012244;28;20034;-84
2023/09/09 11:03:10;;;;;;;5.75;3.35;;;64.10;18.20;;;;;;5012755;28;20115;-88
2023/09/09 11:06:07;;;;;;;3.28;2.70;;;63.00;18.10;;;;;;5006660;28;20552;-83
2023/09/09 11:08:35;;;;;;;2.83;2.63;;;;;;;;;;5011128;28;20108;-82
2023/09/09 11:11:31;;;;;;;2.97;2.78;;;61.70;18.10;;;;;;5011864;28;20498;-91
2023/09/09 11:14:02;;;;;;;3.97;2.90;;;61.80;18.30;;;;;;4999976;28;20042;-89
2023/09/09 11:16:41;;;;;;;3.17;2.88;;;59.70;18.00;;;;;;5014284;28;20418;-89
2023/09/09 11:19:07;;;;;;;3.20;2.20;;;;;;;;;;5011903;28;20034;-86
2023/09/09 11:21:37;;;;;;;3.22;2.00;;;52.30;19.20;;;;;;5012165;28;20600;-85
2023/09/09 11:24:03;;;;;;;2.70;2.00;;;48.40;26.60;;;;;;5011224;28;22715;-86
2023/09/09 11:26:30;;;;;;;1.85;1.55;;;;;;;;;;5010002;28;20038;-85
2023/09/09 11:28:56;;;;;;;3.45;1.98;;;;;;;;;;5011151;28;20076;-85
2023/09/09 11:31:24;;;;;;;2.60;1.95;;;42.90;23.20;;;;;;5013918;28;20032;-84
2023/09/09 11:33:50;;;;;;;2.78;2.33;;;;;;;;;;5008863;28;20068;-86
2023/09/09 11:36:19;;;;;;;2.78;1.77;;;;;;;;;;5011109;28;20061;-84
2023/09/09 11:38:45;;;;;;;4.97;1.90;;;;;;;;;;5017863;28;20251;-85
2023/09/09 11:41:22;;;;;;;2.03;1.75;;;40.40;24.70;;;;;;5008797;28;20313;-86
2023/09/09 11:44:03;;;;;;;4.38;1.83;;;40.20;25.50;;;;;;5009673;28;20034;-85
2023/09/09 11:46:50;;;;;;;2.08;1.85;;;39.50;25.70;;;;;;5011302;28;20037;-85
2023/09/09 11:49:17;;;;;;;3.33;1.98;;;39.30;25.90;;;;;;5005307;28;20033;-84
2023/09/09 11:51:46;;;;;;;4.07;2.05;;;;;;;;;;5010097;28;20080;-84
2023/09/09 11:54:20;;;;;;;3.58;2.85;;;38.60;26.10;;;;;;5009838;28;20033;-86
2023/09/09 11:56:46;;;;;;;3.40;2.83;;;;;;;;;;5006298;28;20109;-84
2023/09/09 11:59:12;;;;;;;2.63;2.28;;;;;;;;;;5014592;28;20037;-83
2023/09/09 12:01:45;;;;;;;2.78;2.13;;;36.90;27.80;;;;;;5010026;28;20034;-85
2023/09/09 12:04:14;;;;;;;3.40;2.33;;;36.80;28.00;;;;;;5010165;28;20097;-85
2023/09/09 12:06:43;;;;;;;2.78;1.85;;;36.60;28.00;;;;;;5003611;28;20569;-84
2023/09/09 12:09:09;;;;;;;4.40;2.35;;;;;;;;;;5010327;28;20062;-83
2023/09/09 12:11:35;;;;;;;3.05;2.17;;;;;;;;;;5008260;28;20030;-84
2023/09/09 12:14:01;;;;;;;;;;;36.70;28.30;;;;;;5010544;28;20120;-84
2023/09/09 12:16:30;;;;;;;;;;;36.40;28.00;;;;;;5010265;28;20442;-84
2023/09/09 12:18:57;;;;;;;3.55;2.35;;;;;;;;;;5010029;28;19913;-84
2023/09/09 12:21:23;;;;;;;3.15;2.63;;;;;;;;;;5008453;28;20028;-84
2023/09/09 12:23:49;;;;;;;4.80;1.95;;;;;;;;;;5010148;28;20037;-84
2023/09/09 12:26:17;;;;;;;6.07;2.30;;;35.40;28.80;;;;;;5008145;28;20026;-85
2023/09/09 12:28:45;;;;;;;4.05;3.03;;;35.30;28.90;;;;;;5009831;28;20026;-84
2023/09/09 12:31:12;;;;;;;5.05;3.72;;;35.10;29.00;;;;;;5009608;28;20064;-84
2023/09/09 12:33:44;;;;;;;;;;;34.90;29.20;;;;;;5010043;28;20030;-85
2023/09/09 12:36:21;;;;;;;2.72;2.20;;;35.10;30.00;;;;;;5003804;28;19979;-85
2023/09/09 12:38:49;;;;;;;2.58;2.22;;;34.90;29.30;;;;;;5008148;28;20145;-84
2023/09/09 12:41:20;;;;;;;2.45;2.10;;;35.20;29.20;;;;;;5008801;28;20823;-84
2023/09/09 12:43:47;;;;;;;3.40;2.17;;;34.90;29.20;;;;;;5009669;28;20083;-84
2023/09/09 12:46:15;;;;;;;9.57;2.67;;;34.70;29.20;;;;;;5008208;28;20509;-83
2023/09/09 12:48:58;;;;;;;3.10;2.17;;;34.80;40.60;;;;;;5009164;28;20108;-85
2023/09/09 12:51:26;;;;;;;3.80;2.35;;;34.50;29.20;;;;;;5007870;28;20074;-85
2023/09/09 12:53:52;;;;;;;4.13;2.20;;;;;;;;;;5009668;28;20013;-85
2023/09/09 12:56:18;;;;;;;5.35;2.67;;;;;;;;;;5020979;28;20034;-84
2023/09/09 12:58:45;;;;;;;4.35;2.22;;;;;;;;;;5009810;28;20038;-84
2023/09/09 13:01:11;;;;;;;3.42;2.33;;;;;;;;;;5009471;28;20030;-84
2023/09/09 13:03:39;;;;;;;2.28;2.00;;;34.00;29.70;;;;;;5022190;28;20121;-84
2023/09/09 13:06:06;;;;;;;4.85;2.97;;;34.20;29.60;;;;;;5008012;28;20169;-84
2023/09/09 13:08:33;;;;;;;4.97;2.00;;;;;;;;;;5009098;28;20037;-84
2023/09/09 13:10:59;;;;;;;4.13;2.60;;;;;;;;;;5008745;28;20045;-84
2023/09/09 13:13:25;;;;;;;3.33;2.13;;;;;;;;;;5007332;28;20018;-85
2023/09/09 13:15:51;;;;;;;3.78;2.00;;;;;;;;;;5009086;28;20037;-85
2023/09/09 13:18:21;;;;;;;2.75;1.98;;;;;;;;;;5008419;28;20053;-84
2023/09/09 13:20:47;;;;;;;5.55;2.47;;;;;;;;;;5007968;28;20099;-85
2023/09/09 13:23:13;;;;;;;4.57;1.98;;;;;;;;;;5009445;28;20030;-83
2023/09/09 13:25:39;;;;;;;3.63;1.90;;;;;;;;;;5009100;28;20036;-84
2023/09/09 13:28:05;;;;;;;3.50;2.53;;;;;;;;;;5009086;28;20402;-85
2023/09/09 13:30:31;;;;;;;4.82;3.05;;;33.50;34.10;;;;;;5021844;28;20117;-84
2023/09/09 13:32:57;;;;;;;7.72;2.33;;;;;;;;;;5008842;28;20122;-85
2023/09/09 13:35:24;;;;;;;3.22;2.30;;;;;;;;;;5007376;28;20032;-86
2023/09/09 13:37:49;;;;;;;2.55;1.83;;;;;;;;;;5008908;28;20061;-84
2023/09/09 13:40:16;;;;;;;4.35;2.30;;;;;;;;;;5011458;28;20053;-87
2023/09/09 13:42:42;;;;;;;3.05;2.25;;;33.10;30.60;;;;;;5008524;28;20037;-85
2023/09/09 13:45:09;;;;;;;3.35;2.80;;;;;;;;;;5008471;28;20037;-86
2023/09/09 13:47:35;;;;;;;2.92;2.00;;;;;;;;;;5008532;28;20033;-84
2023/09/09 13:50:02;;;;;;;3.60;2.03;;;32.80;31.20;;;;;;5009017;28;20030;-84
2023/09/09 13:52:28;;;;;;;7.35;2.55;;;;;;;;;;5008674;28;20037;-83
2023/09/09 13:54:54;;;;;;;3.70;2.53;;;;;;;;;;5008570;28;20052;-84
2023/09/09 13:57:20;;;;;;;3.95;2.42;;;;;;;;;;5008546;28;20046;-86
2023/09/09 13:59:46;;;;;;;4.20;2.17;;;;;;;;;;5008720;28;20030;-85
2023/09/09 14:02:12;;;;;;;3.55;1.98;;;;;;;;;;5008452;28;20026;-85
2023/09/09 14:04:38;;;;;;;3.17;1.93;;;;;;;;;;5009561;28;20030;-85